地図

経路データ

SID SEASON NUMBER BASIN SUBBASIN NAME ISO_TIME NATURE LAT LON WMO_WIND WMO_PRES WMO_AGENCY TRACK_TYPE DIST2LAND LANDFALL IFLAG USA_AGENCY USA_ATCF_ID USA_LAT USA_LON USA_RECORD USA_STATUS USA_WIND USA_PRES USA_SSHS USA_R34_NE USA_R34_SE USA_R34_SW USA_R34_NW USA_R50_NE USA_R50_SE USA_R50_SW USA_R50_NW USA_R64_NE USA_R64_SE USA_R64_SW USA_R64_NW USA_POCI USA_ROCI USA_RMW USA_EYE TOKYO_LAT TOKYO_LON TOKYO_GRADE TOKYO_WIND TOKYO_PRES TOKYO_R50_DIR TOKYO_R50_LONG TOKYO_R50_SHORT TOKYO_R30_DIR TOKYO_R30_LONG TOKYO_R30_SHORT TOKYO_LAND CMA_LAT CMA_LON CMA_CAT CMA_WIND CMA_PRES HKO_LAT HKO_LON HKO_CAT HKO_WIND HKO_PRES NEWDELHI_LAT NEWDELHI_LON NEWDELHI_GRADE NEWDELHI_WIND NEWDELHI_PRES NEWDELHI_CI NEWDELHI_DP NEWDELHI_POCI REUNION_LAT REUNION_LON REUNION_TYPE REUNION_WIND REUNION_PRES REUNION_TNUM REUNION_CI REUNION_RMW REUNION_R34_NE REUNION_R34_SE REUNION_R34_SW REUNION_R34_NW REUNION_R50_NE REUNION_R50_SE REUNION_R50_SW REUNION_R50_NW REUNION_R64_NE REUNION_R64_SE REUNION_R64_SW REUNION_R64_NW BOM_LAT BOM_LON BOM_TYPE BOM_WIND BOM_PRES BOM_TNUM BOM_CI BOM_RMW BOM_R34_NE BOM_R34_SE BOM_R34_SW BOM_R34_NW BOM_R50_NE BOM_R50_SE BOM_R50_SW BOM_R50_NW BOM_R64_NE BOM_R64_SE BOM_R64_SW BOM_R64_NW BOM_ROCI BOM_POCI BOM_EYE BOM_POS_METHOD BOM_PRES_METHOD NADI_LAT NADI_LON NADI_CAT NADI_WIND NADI_PRES WELLINGTON_LAT WELLINGTON_LON WELLINGTON_WIND WELLINGTON_PRES DS824_LAT DS824_LON DS824_STAGE DS824_WIND DS824_PRES TD9636_LAT TD9636_LON TD9636_STAGE TD9636_WIND TD9636_PRES TD9635_LAT TD9635_LON TD9635_WIND TD9635_PRES TD9635_ROCI NEUMANN_LAT NEUMANN_LON NEUMANN_CLASS NEUMANN_WIND NEUMANN_PRES MLC_LAT MLC_LON MLC_CLASS MLC_WIND MLC_PRES USA_GUST BOM_GUST BOM_GUST_PER REUNION_GUST REUNION_GUST_PER USA_SEAHGT USA_SEARAD_NE USA_SEARAD_SE USA_SEARAD_SW USA_SEARAD_NW STORM_SPEED STORM_DIR
1942237N28298 1942 43 NA NA NOT_NAMED 1942-08-25 06:00:00 TS 27.5000 -62.5000 65 hurdat_atl main 1065 1065 O_____________ hurdat_atl AL041942 27.5000 -62.5000 HU 65 1 11 337
1942237N28298 1942 43 NA NA NOT_NAMED 1942-08-25 09:00:00 TS 28.0201 -62.7523 main 1110 1110 P_____________ AL041942 28.0201 -62.7523 HU 65 1 12 338
1942237N28298 1942 43 NA NA NOT_NAMED 1942-08-25 12:00:00 TS 28.6000 -63.0000 65 hurdat_atl main 1170 1170 O_____________ hurdat_atl AL041942 28.6000 -63.0000 HU 65 1 13 342
1942237N28298 1942 43 NA NA NOT_NAMED 1942-08-25 15:00:00 TS 29.2775 -63.2298 main 1242 1242 P_____________ AL041942 29.2775 -63.2298 HU 70 1 14 346
1942237N28298 1942 43 NA NA NOT_NAMED 1942-08-25 18:00:00 TS 30.0000 -63.4000 75 hurdat_atl main 1298 1249 O_____________ hurdat_atl AL041942 30.0000 -63.4000 HU 75 1 15 351
1942237N28298 1942 43 NA NA NOT_NAMED 1942-08-25 21:00:00 TS 30.7374 -63.5099 main 1249 1211 P_____________ AL041942 30.7374 -63.5099 HU 82 1 14 356
1942237N28298 1942 43 NA NA NOT_NAMED 1942-08-26 00:00:00 TS 31.4000 -63.5000 90 hurdat_atl main 1211 1195 O_____________ hurdat_atl AL041942 31.4000 -63.5000 HU 90 2 12 6
1942237N28298 1942 43 NA NA NOT_NAMED 1942-08-26 03:00:00 TS 31.8873 -63.3748 main 1195 1195 P_____________ AL041942 31.8873 -63.3748 HU 92 2 10 21
1942237N28298 1942 43 NA NA NOT_NAMED 1942-08-26 06:00:00 TS 32.3000 -63.1000 95 hurdat_atl main 1203 1186 O_____________ hurdat_atl AL041942 32.3000 -63.1000 HU 95 2 10 32
1942237N28298 1942 43 NA NA NOT_NAMED 1942-08-26 09:00:00 TS 32.7417 -62.7538 main 1186 1167 P_____________ AL041942 32.7417 -62.7538 HU 95 2 12 40
1942237N28298 1942 43 NA NA NOT_NAMED 1942-08-26 12:00:00 TS 33.2000 -62.2000 95 hurdat_atl main 1168 1141 O_____________ hurdat_atl AL041942 33.2000 -62.2000 HU 95 2 15 51
1942237N28298 1942 43 NA NA NOT_NAMED 1942-08-26 15:00:00 TS 33.7007 -61.3606 main 1141 1114 P_____________ AL041942 33.7007 -61.3606 HU 95 2 18 56
1942237N28298 1942 43 NA NA NOT_NAMED 1942-08-26 18:00:00 TS 34.2000 -60.4000 95 hurdat_atl main 1117 1098 O_____________ hurdat_atl AL041942 34.2000 -60.4000 HU 95 2 18 58
1942237N28298 1942 43 NA NA NOT_NAMED 1942-08-26 21:00:00 TS 34.6878 -59.4829 main 1098 1087 P_____________ AL041942 34.6878 -59.4829 HU 92 2 17 57
1942237N28298 1942 43 NA NA NOT_NAMED 1942-08-27 00:00:00 TS 35.1000 -58.7000 90 hurdat_atl main 1092 1086 O_____________ hurdat_atl AL041942 35.1000 -58.7000 HU 90 2 13 57
1942237N28298 1942 43 NA NA NOT_NAMED 1942-08-27 03:00:00 TS 35.3941 -58.1663 main 1086 1081 P_____________ AL041942 35.3941 -58.1663 HU 90 2 9 56
1942237N28298 1942 43 NA NA NOT_NAMED 1942-08-27 06:00:00 TS 35.6000 -57.8000 90 hurdat_atl main 1087 1083 O_____________ hurdat_atl AL041942 35.6000 -57.8000 HU 90 2 7 57
1942237N28298 1942 43 NA NA NOT_NAMED 1942-08-27 09:00:00 TS 35.7573 -57.4695 main 1084 1082 P_____________ AL041942 35.7573 -57.4695 HU 87 2 6 58
1942237N28298 1942 43 NA NA NOT_NAMED 1942-08-27 12:00:00 TS 35.9000 -57.2000 85 hurdat_atl main 1085 1069 O_____________ hurdat_atl AL041942 35.9000 -57.2000 HU 85 2 5 52
1942237N28298 1942 43 NA NA NOT_NAMED 1942-08-27 15:00:00 TS 36.0849 -56.9423 main 1071 1056 P_____________ AL041942 36.0849 -56.9423 HU 85 2 6 45
1942237N28298 1942 43 NA NA NOT_NAMED 1942-08-27 18:00:00 TS 36.3000 -56.7000 85 hurdat_atl main 1056 1041 O_____________ hurdat_atl AL041942 36.3000 -56.7000 HU 85 2 6 41
1942237N28298 1942 43 NA NA NOT_NAMED 1942-08-27 21:00:00 TS 36.5424 -56.4499 main 1044 1020 P_____________ AL041942 36.5424 -56.4499 HU 82 1 6 39
1942237N28298 1942 43 NA NA NOT_NAMED 1942-08-28 00:00:00 TS 36.8000 -56.2000 80 hurdat_atl main 1020 1006 O_____________ hurdat_atl AL041942 36.8000 -56.2000 HU 80 1 6 38
1942237N28298 1942 43 NA NA NOT_NAMED 1942-08-28 03:00:00 TS 37.0499 -55.9498 main 1009 986 P_____________ AL041942 37.0499 -55.9498 HU 80 1 6 39
1942237N28298 1942 43 NA NA NOT_NAMED 1942-08-28 06:00:00 TS 37.3000 -55.7000 80 hurdat_atl main 986 970 O_____________ hurdat_atl AL041942 37.3000 -55.7000 HU 80 1 6 37
1942237N28298 1942 43 NA NA NOT_NAMED 1942-08-28 09:00:00 TS 37.5573 -55.4648 main 964 957 P_____________ AL041942 37.5573 -55.4648 HU 77 1 6 38
1942237N28298 1942 43 NA NA NOT_NAMED 1942-08-28 12:00:00 TS 37.8000 -55.2000 75 hurdat_atl main 957 946 O_____________ hurdat_atl AL041942 37.8000 -55.2000 HU 75 1 7 47
1942237N28298 1942 43 NA NA NOT_NAMED 1942-08-28 15:00:00 TS 38.0076 -54.8574 main 950 937 P_____________ AL041942 38.0076 -54.8574 HU 75 1 7 54
1942237N28298 1942 43 NA NA NOT_NAMED 1942-08-28 18:00:00 TS 38.2000 -54.5000 75 hurdat_atl main 937 913 O_____________ hurdat_atl AL041942 38.2000 -54.5000 HU 75 1 7 53
1942237N28298 1942 43 NA NA NOT_NAMED 1942-08-28 21:00:00 TS 38.4074 -54.1849 main 913 889 P_____________ AL041942 38.4074 -54.1849 HU 72 1 6 50
1942237N28298 1942 43 NA NA NOT_NAMED 1942-08-29 00:00:00 TS 38.6000 -53.9000 70 hurdat_atl main 889 867 O_____________ hurdat_atl AL041942 38.6000 -53.9000 HU 70 1 6 50
1942237N28298 1942 43 NA NA NOT_NAMED 1942-08-29 03:00:00 TS 38.7724 -53.6349 main 867 856 P_____________ AL041942 38.7724 -53.6349 HU 70 1 5 52
1942237N28298 1942 43 NA NA NOT_NAMED 1942-08-29 06:00:00 TS 38.9000 -53.4000 70 hurdat_atl main 856 845 O_____________ hurdat_atl AL041942 38.9000 -53.4000 HU 70 1 4 61
1942237N28298 1942 43 NA NA NOT_NAMED 1942-08-29 09:00:00 TS 38.9650 -53.1848 main 845 845 P_____________ AL041942 38.9650 -53.1848 HU 67 1 3 72
1942237N28298 1942 43 NA NA NOT_NAMED 1942-08-29 12:00:00 TS 39.0000 -53.0000 65 hurdat_atl main 845 834 O_____________ hurdat_atl AL041942 39.0000 -53.0000 HU 65 1 3 71
1942237N28298 1942 43 NA NA NOT_NAMED 1942-08-29 15:00:00 TS 39.0574 -52.8425 main 834 834 P_____________ AL041942 39.0574 -52.8425 HU 62 0 3 67
1942237N28298 1942 43 NA NA NOT_NAMED 1942-08-29 18:00:00 TS 39.1000 -52.7000 60 hurdat_atl main 834 834 O_____________ hurdat_atl AL041942 39.1000 -52.7000 TS 60 0 2 76
1942237N28298 1942 43 NA NA NOT_NAMED 1942-08-29 21:00:00 TS 39.1150 -52.5425 main 835 835 P_____________ AL041942 39.1150 -52.5425 TS 57 0 2 90
1942237N28298 1942 43 NA NA NOT_NAMED 1942-08-30 00:00:00 TS 39.1000 -52.4000 55 hurdat_atl main 836 836 O_____________ hurdat_atl AL041942 39.1000 -52.4000 TS 55 0 2 108
1942237N28298 1942 43 NA NA NOT_NAMED 1942-08-30 03:00:00 TS 39.0500 -52.2925 main 848 848 P_____________ AL041942 39.0500 -52.2925 TS 55 0 2 123
1942237N28298 1942 43 NA NA NOT_NAMED 1942-08-30 06:00:00 TS 39.0000 -52.2000 55 hurdat_atl main 849 849 O_____________ hurdat_atl AL041942 39.0000 -52.2000 TS 55 0 2 105
1942237N28298 1942 43 NA NA NOT_NAMED 1942-08-30 09:00:00 TS 39.0075 -52.0851 main 849 849 P_____________ AL041942 39.0075 -52.0851 TS 52 0 2 90
1942237N28298 1942 43 NA NA NOT_NAMED 1942-08-30 12:00:00 TS 39.0000 -52.0000 50 hurdat_atl main 850 850 O_____________ hurdat_atl AL041942 39.0000 -52.0000 TS 50 0 1 133
1942237N28298 1942 43 NA NA NOT_NAMED 1942-08-30 15:00:00 TS 38.9225 -51.9699 main 861 861 P_____________ AL041942 38.9225 -51.9699 TS 47 0 2 172
1942237N28298 1942 43 NA NA NOT_NAMED 1942-08-30 18:00:00 TS 38.8000 -52.0000 45 hurdat_atl main 872 872 O_____________ hurdat_atl AL041942 38.8000 -52.0000 TS 45 0 3 197
1942237N28298 1942 43 NA NA NOT_NAMED 1942-08-30 21:00:00 TS 38.6575 -52.0700 main 883 883 P_____________ AL041942 38.6575 -52.0700 TS 45 0 3 207
1942237N28298 1942 43 NA NA NOT_NAMED 1942-08-31 00:00:00 TS 38.5000 -52.2000 45 hurdat_atl main 904 904 O_____________ hurdat_atl AL041942 38.5000 -52.2000 TS 45 0 4 218
1942237N28298 1942 43 NA NA NOT_NAMED 1942-08-31 03:00:00 TS 38.3425 -52.3851 main 925 924 P_____________ AL041942 38.3425 -52.3851 TS 45 0 4 226
1942237N28298 1942 43 NA NA NOT_NAMED 1942-08-31 06:00:00 TS 38.2000 -52.6000 45 hurdat_atl main 935 935 O_____________ hurdat_atl AL041942 38.2000 -52.6000 TS 45 0 4 234
1942237N28298 1942 43 NA NA NOT_NAMED 1942-08-31 09:00:00 TS 38.0925 -52.8149 main 945 945 P_____________ AL041942 38.0925 -52.8149 TS 45 0 4 238
1942237N28298 1942 43 NA NA NOT_NAMED 1942-08-31 12:00:00 TS 38.0000 -53.0000 45 hurdat_atl main 956 956 O_____________ hurdat_atl AL041942 38.0000 -53.0000 TS 45 0 3 231
1942237N28298 1942 43 NA NA NOT_NAMED 1942-08-31 15:00:00 TS 37.8999 -53.1149 main 967 967 P_____________ AL041942 37.8999 -53.1149 TS 45 0 3 219
1942237N28298 1942 43 NA NA NOT_NAMED 1942-08-31 18:00:00 TS 37.8000 -53.2000 45 hurdat_atl main 978 978 O_____________ hurdat_atl AL041942 37.8000 -53.2000 TS 45 0 2 218
1942237N28298 1942 43 NA NA NOT_NAMED 1942-08-31 21:00:00 TS 37.7075 -53.2999 main 989 989 P_____________ AL041942 37.7075 -53.2999 TS 42 0 3 219
1942237N28298 1942 43 NA NA NOT_NAMED 1942-09-01 00:00:00 TS 37.6000 -53.4000 40 hurdat_atl main 1001 1001 O_____________ hurdat_atl AL041942 37.6000 -53.4000 TS 40 0 3 211
1942237N28298 1942 43 NA NA NOT_NAMED 1942-09-01 03:00:00 TS 37.4574 -53.4849 main 1012 1012 P_____________ AL041942 37.4574 -53.4849 TS 40 0 3 207
1942237N28298 1942 43 NA NA NOT_NAMED 1942-09-01 06:00:00 TS 37.3000 -53.6000 40 hurdat_atl main 1034 1034 O_____________ hurdat_atl AL041942 37.3000 -53.6000 TS 40 0 4 218
1942237N28298 1942 43 NA NA NOT_NAMED 1942-09-01 09:00:00 TS 37.1724 -53.7621 main 1045 1045 P_____________ AL041942 37.1724 -53.7621 TS 37 0 4 227
1942237N28298 1942 43 NA NA NOT_NAMED 1942-09-01 12:00:00 TS 37.0000 -54.0000 35 hurdat_atl main 1068 1068 O_____________ hurdat_atl AL041942 37.0000 -54.0000 TS 35 0 7 225
1942237N28298 1942 43 NA NA NOT_NAMED 1942-09-01 15:00:00 TS 36.7077 -54.3430 main 1102 1098 P_____________ AL041942 36.7077 -54.3430 TS 35 0 8 223
1942237N28298 1942 43 NA NA NOT_NAMED 1942-09-01 18:00:00 TS 36.4000 -54.7000 35 hurdat_atl main 1115 1115 O_____________ hurdat_atl AL041942 36.4000 -54.7000 TS 35 0 7 221
1942237N28298 1942 43 NA NA NOT_NAMED 1942-09-01 21:00:00 TS 36.1843 -54.9041 main 1127 1127 P_____________ AL041942 36.1843 -54.9041 TS 35 0 6 225
1942237N28298 1942 43 NA NA NOT_NAMED 1942-09-02 00:00:00 TS 36.0000 -55.2000 35 hurdat_atl main 1136 1133 O_____________ hurdat_atl AL041942 36.0000 -55.2000 TS 35 0 8 242
1942237N28298 1942 43 NA NA NOT_NAMED 1942-09-02 03:00:00 TS 35.8003 -55.7826 main 1136 1131 P_____________ AL041942 35.8003 -55.7826 TS 35 0 11 249
1942237N28298 1942 43 NA NA NOT_NAMED 1942-09-02 06:00:00 TS 35.6000 -56.5000 35 hurdat_atl main 1136 1130 O_____________ hurdat_atl AL041942 35.6000 -56.5000 TS 35 0 12 251
1942237N28298 1942 43 NA NA NOT_NAMED 1942-09-02 09:00:00 TS 35.3998 -57.1998 main 1136 1119 P_____________ AL041942 35.3998 -57.1998 TS 35 0 12 251
1942237N28298 1942 43 NA NA NOT_NAMED 1942-09-02 12:00:00 TS 35.2000 -57.9000 35 hurdat_atl main 1119 1105 O_____________ hurdat_atl AL041942 35.2000 -57.9000 TS 35 0 12 251
1942237N28298 1942 43 NA NA NOT_NAMED 1942-09-02 15:00:00 TS 35.0074 -58.5796 main 1106 1097 P_____________ AL041942 35.0074 -58.5796 TS 35 0 11 249
1942237N28298 1942 43 NA NA NOT_NAMED 1942-09-02 18:00:00 TS 34.8000 -59.2000 35 hurdat_atl main 1100 1094 O_____________ hurdat_atl AL041942 34.8000 -59.2000 TS 35 0 11 245
1942237N28298 1942 43 NA NA NOT_NAMED 1942-09-02 21:00:00 TS 34.5649 -59.7599 main 1097 1097 P_____________ AL041942 34.5649 -59.7599 TS 32 -1 10 239
1942237N28298 1942 43 NA NA NOT_NAMED 1942-09-03 00:00:00 TS 34.3000 -60.2000 30 hurdat_atl main 1114 1110 O_____________ hurdat_atl AL041942 34.3000 -60.2000 TD 30 -1 8 228
1942237N28298 1942 43 NA NA NOT_NAMED 1942-09-03 03:00:00 TS 34.0147 -60.5021 main 1135 1135 P_____________ AL041942 34.0147 -60.5021 TD 30 -1 7 215
1942237N28298 1942 43 NA NA NOT_NAMED 1942-09-03 06:00:00 TS 33.7000 -60.7000 30 hurdat_atl main 1161 1161 O_____________ hurdat_atl AL041942 33.7000 -60.7000 TD 30 -1 7 205
1942237N28298 1942 43 NA NA NOT_NAMED 1942-09-03 09:00:00 TS 33.3424 -60.8724 main 1197 1197 P_____________ AL041942 33.3424 -60.8724 TD 27 -1 7 200
1942237N28298 1942 43 NA NA NOT_NAMED 1942-09-03 12:00:00 TS 33.0000 -61.0000 25 hurdat_atl main 1227 1227 O_____________ hurdat_atl AL041942 33.0000 -61.0000 TD 25 -1 6 198
1942237N28298 1942 43 NA NA NOT_NAMED 1942-09-03 15:00:00 TS 32.7275 -61.1051 main 1256 1256 P_____________ AL041942 32.7275 -61.1051 TD 25 -1 5 199
1942237N28298 1942 43 NA NA NOT_NAMED 1942-09-03 18:00:00 TS 32.5000 -61.2000 25 hurdat_atl main 1275 O_____________ hurdat_atl AL041942 32.5000 -61.2000 TD 25 -1 5 199

IBTrACS Databaseについて

本データベースは、米国NOAAが公開する1842年以降の世界の熱帯低気圧のベストトラックデータアーカイブInternational Best Track Archive for Climate Stewardship (IBTrACS)を、ウェブで閲覧しやすい形式に変換したものです。

最終更新日:2021-10-25